createdAt,value
2018-01-27T00:01:22.987Z,7.80
2018-01-27T00:03:51.597Z,7.70
2018-01-27T00:06:19.178Z,7.60
2018-01-27T00:08:46.743Z,7.60
2018-01-27T00:13:52.107Z,7.50
2018-01-27T00:16:19.728Z,7.50
2018-01-27T00:18:48.194Z,7.50
2018-01-27T00:21:15.786Z,7.50
2018-01-27T00:23:43.423Z,7.60
2018-01-27T00:26:11.834Z,7.60
2018-01-27T00:28:40.495Z,7.60
2018-01-27T00:31:08.894Z,7.50
2018-01-27T00:33:36.441Z,7.50
2018-01-27T00:36:04.209Z,7.40
2018-01-27T00:38:31.757Z,7.40
2018-01-27T00:41:00.263Z,7.20
2018-01-27T00:43:28.195Z,7.20
2018-01-27T00:45:55.733Z,7.20
2018-01-27T00:48:23.344Z,7.10
2018-01-27T00:50:50.939Z,7.10
2018-01-27T00:53:18.534Z,7.10
2018-01-27T00:55:46.168Z,7.10
2018-01-27T00:58:13.755Z,7.00
2018-01-27T01:00:41.276Z,7.00
2018-01-27T01:03:08.839Z,7.00
2018-01-27T01:05:36.412Z,7.00
2018-01-27T01:08:04.084Z,7.00
2018-01-27T01:10:31.602Z,7.00
2018-01-27T01:12:59.404Z,6.90
2018-01-27T01:15:26.974Z,6.90
2018-01-27T01:17:54.611Z,6.90
2018-01-27T01:20:22.161Z,7.00
2018-01-27T01:22:49.772Z,7.00
2018-01-27T01:25:17.332Z,7.00
2018-01-27T01:27:44.893Z,7.00
2018-01-27T01:30:12.487Z,7.10
2018-01-27T01:32:40.860Z,7.20
2018-01-27T01:35:08.400Z,7.20
2018-01-27T01:37:35.947Z,7.20
2018-01-27T01:40:03.533Z,7.20
2018-01-27T01:42:36.749Z,7.20
2018-01-27T01:45:06.005Z,7.10
2018-01-27T01:47:33.574Z,7.10
2018-01-27T01:50:01.118Z,7.20
2018-01-27T01:52:28.693Z,7.20
2018-01-27T01:54:56.273Z,7.20
2018-01-27T01:57:24.628Z,7.00
2018-01-27T01:59:53.016Z,7.00
2018-01-27T02:02:20.606Z,7.00
2018-01-27T02:04:48.195Z,7.00
2018-01-27T02:07:15.735Z,7.10
2018-01-27T02:09:43.290Z,7.00
2018-01-27T02:12:11.659Z,7.00
2018-01-27T02:14:39.961Z,7.00
2018-01-27T02:17:07.492Z,7.00
2018-01-27T02:19:35.835Z,6.90
2018-01-27T02:22:03.388Z,6.90
2018-01-27T02:24:31.697Z,6.90
2018-01-27T02:26:59.383Z,6.90
2018-01-27T02:29:27.036Z,6.90
2018-01-27T02:31:54.608Z,6.90
2018-01-27T02:34:22.155Z,6.80
2018-01-27T02:36:50.482Z,6.60
2018-01-27T02:39:18.051Z,6.60
2018-01-27T02:41:45.674Z,6.70
2018-01-27T02:44:13.283Z,6.80
2018-01-27T02:46:40.842Z,6.80
2018-01-27T02:49:08.733Z,6.90
2018-01-27T02:51:36.271Z,6.80
2018-01-27T02:54:03.869Z,6.90
2018-01-27T02:56:31.476Z,6.90
2018-01-27T02:58:59.021Z,7.00
2018-01-27T03:01:26.842Z,7.00
2018-01-27T03:03:59.830Z,6.90
2018-01-27T03:06:28.148Z,6.90
2018-01-27T03:08:55.704Z,6.90
2018-01-27T03:11:23.303Z,6.90
2018-01-27T03:13:50.887Z,7.00
2018-01-27T03:16:19.307Z,7.00
2018-01-27T03:18:46.879Z,6.90
2018-01-27T03:21:14.877Z,6.80
2018-01-27T03:23:42.538Z,6.90
2018-01-27T03:26:10.104Z,6.90
2018-01-27T03:28:37.677Z,6.80
2018-01-27T03:31:06.004Z,6.80
2018-01-27T03:33:33.560Z,6.80
2018-01-27T03:36:01.183Z,6.90
2018-01-27T03:38:28.758Z,6.90
2018-01-27T03:40:56.296Z,6.90
2018-01-27T03:43:23.979Z,6.90
2018-01-27T03:45:51.608Z,6.80
2018-01-27T03:48:19.175Z,6.80
2018-01-27T03:50:47.482Z,6.80
2018-01-27T03:53:15.055Z,6.80
2018-01-27T03:55:42.720Z,6.80
2018-01-27T03:58:10.312Z,6.80
2018-01-27T04:00:37.874Z,6.70
2018-01-27T04:03:05.471Z,6.60
2018-01-27T04:05:33.788Z,6.50
2018-01-27T04:08:01.733Z,6.50
2018-01-27T04:10:29.264Z,6.40
2018-01-27T04:12:57.592Z,6.40
2018-01-27T04:15:25.154Z,6.40
2018-01-27T04:17:52.807Z,6.50
2018-01-27T04:20:20.456Z,6.50
2018-01-27T04:22:48.006Z,6.50
2018-01-27T04:25:15.626Z,6.40
2018-01-27T04:27:43.207Z,6.40
2018-01-27T04:30:10.800Z,6.40
2018-01-27T04:32:38.353Z,6.40
2018-01-27T04:35:05.920Z,6.40
2018-01-27T04:37:33.694Z,6.40
2018-01-27T04:40:01.250Z,6.40
2018-01-27T04:42:28.895Z,6.30
2018-01-27T04:44:56.470Z,6.40
2018-01-27T04:47:24.149Z,6.30
2018-01-27T04:49:51.825Z,6.30
2018-01-27T04:52:19.440Z,6.30
2018-01-27T04:54:47.515Z,6.30
2018-01-27T04:57:15.115Z,6.30
2018-01-27T04:59:42.718Z,6.10
2018-01-27T05:02:10.735Z,6.10
2018-01-27T05:04:39.195Z,6.20
2018-01-27T05:07:07.696Z,6.10
2018-01-27T05:09:35.438Z,6.20
2018-01-27T05:12:03.011Z,6.20
2018-01-27T05:14:30.581Z,6.20
2018-01-27T05:16:58.569Z,6.10
2018-01-27T05:19:26.165Z,6.30
2018-01-27T05:21:55.446Z,6.40
2018-01-27T05:24:23.023Z,6.40
2018-01-27T05:26:51.331Z,6.60
2018-01-27T05:29:19.387Z,6.50
2018-01-27T05:31:46.969Z,6.60
2018-01-27T05:34:14.525Z,6.60
2018-01-27T05:36:42.184Z,6.60
2018-01-27T05:39:09.797Z,6.60
2018-01-27T05:41:37.389Z,6.60
2018-01-27T05:44:05.009Z,6.60
2018-01-27T05:46:32.606Z,6.60
2018-01-27T05:49:00.190Z,6.60
2018-01-27T05:51:28.070Z,6.70
2018-01-27T05:53:55.653Z,6.70
2018-01-27T05:56:23.217Z,6.80
2018-01-27T05:58:52.045Z,6.90
2018-01-27T06:01:19.602Z,6.90
2018-01-27T06:03:47.270Z,6.90
2018-01-27T06:06:14.827Z,6.90
2018-01-27T06:08:42.401Z,6.90
2018-01-27T06:11:10.159Z,6.90
2018-01-27T06:13:37.717Z,6.90
2018-01-27T06:16:05.319Z,6.90
2018-01-27T06:18:32.961Z,6.90
2018-01-27T06:21:00.599Z,6.80
2018-01-27T06:23:28.263Z,6.80
2018-01-27T06:25:55.832Z,6.80
2018-01-27T06:28:23.669Z,6.70
2018-01-27T06:30:51.219Z,6.80
2018-01-27T06:33:18.748Z,6.70
2018-01-27T06:35:46.327Z,6.70
2018-01-27T06:38:14.135Z,6.70
2018-01-27T06:40:41.775Z,6.70
2018-01-27T06:43:09.320Z,6.70
2018-01-27T06:45:36.919Z,6.70
2018-01-27T06:48:04.546Z,6.80
2018-01-27T06:50:32.117Z,6.80
2018-01-27T06:52:59.772Z,6.80
2018-01-27T06:55:27.367Z,6.80
2018-01-27T06:57:55.707Z,6.90
2018-01-27T07:00:23.390Z,6.90
2018-01-27T07:02:51.038Z,7.00
2018-01-27T07:05:18.698Z,7.00
2018-01-27T07:07:46.288Z,6.90
2018-01-27T07:10:14.652Z,7.00
2018-01-27T07:12:42.260Z,7.00
2018-01-27T07:15:10.613Z,7.10
2018-01-27T07:17:38.285Z,7.10
2018-01-27T07:20:06.704Z,7.00
2018-01-27T07:22:34.275Z,7.00
2018-01-27T07:25:01.827Z,7.00
2018-01-27T07:27:29.383Z,7.00
2018-01-27T07:29:57.829Z,6.90
2018-01-27T07:32:26.156Z,7.00
2018-01-27T07:34:53.839Z,7.00
2018-01-27T07:37:21.421Z,7.00
2018-01-27T07:39:49.784Z,7.00
2018-01-27T07:42:17.426Z,7.10
2018-01-27T07:44:45.788Z,7.10
2018-01-27T07:47:13.350Z,7.10
2018-01-27T07:49:41.167Z,7.10
2018-01-27T07:52:09.809Z,7.10
2018-01-27T07:54:39.907Z,7.10
2018-01-27T07:57:08.232Z,7.00
2018-01-27T07:59:35.811Z,7.00
2018-01-27T08:02:04.139Z,6.90
2018-01-27T08:04:31.721Z,6.90
2018-01-27T08:06:59.351Z,6.80
2018-01-27T08:09:26.884Z,6.80
2018-01-27T08:11:55.244Z,6.80
2018-01-27T08:14:22.810Z,6.80
2018-01-27T08:16:51.894Z,6.80
2018-01-27T08:19:19.495Z,6.70
2018-01-27T08:21:47.068Z,6.70
2018-01-27T08:24:14.684Z,6.70
2018-01-27T08:26:43.824Z,6.80
2018-01-27T08:29:12.169Z,6.80
2018-01-27T08:31:40.812Z,6.80
2018-01-27T08:34:08.374Z,6.80
2018-01-27T08:36:35.915Z,6.90
2018-01-27T08:39:04.294Z,6.90
2018-01-27T08:41:31.914Z,7.00
2018-01-27T08:43:59.488Z,7.00
2018-01-27T08:46:27.869Z,6.90
2018-01-27T08:48:56.797Z,6.90
2018-01-27T08:51:24.400Z,6.90
2018-01-27T08:53:51.987Z,6.80
2018-01-27T08:56:19.620Z,6.90
2018-01-27T08:58:47.180Z,7.00
2018-01-27T09:01:14.787Z,6.90
2018-01-27T09:03:42.384Z,7.00
2018-01-27T09:06:09.945Z,7.00
2018-01-27T09:08:37.533Z,7.10
2018-01-27T09:11:05.144Z,7.20
2018-01-27T09:13:32.729Z,7.40
2018-01-27T09:16:00.298Z,7.40
2018-01-27T09:18:27.897Z,7.30
2018-01-27T09:20:55.500Z,7.50
2018-01-27T09:23:23.123Z,7.40
2018-01-27T09:25:51.579Z,7.50
2018-01-27T09:28:20.023Z,7.40
2018-01-27T09:30:47.591Z,7.50
2018-01-27T09:33:15.150Z,7.60
2018-01-27T09:35:43.517Z,7.70
2018-01-27T09:38:11.050Z,7.70
2018-01-27T09:40:39.489Z,7.70
2018-01-27T09:43:07.068Z,7.80
2018-01-27T09:45:34.624Z,7.70
2018-01-27T09:48:02.192Z,7.60
2018-01-27T09:50:30.515Z,7.80
2018-01-27T09:52:58.115Z,7.80
2018-01-27T09:55:25.850Z,7.90
2018-01-27T09:57:53.459Z,7.70
2018-01-27T10:00:22.246Z,7.90
2018-01-27T10:02:50.682Z,7.90
2018-01-27T10:05:18.638Z,7.90
2018-01-27T10:07:46.237Z,7.90
2018-01-27T10:10:13.768Z,7.90
2018-01-27T10:12:41.368Z,7.90
2018-01-27T10:15:08.989Z,7.70
2018-01-27T10:17:36.536Z,7.70
2018-01-27T10:20:04.079Z,7.90
2018-01-27T10:22:31.644Z,8.00
2018-01-27T10:25:00.118Z,8.00
2018-01-27T10:27:27.692Z,8.10
2018-01-27T10:29:55.296Z,8.20
2018-01-27T10:32:22.983Z,8.10
2018-01-27T10:34:50.575Z,8.10
2018-01-27T10:37:18.155Z,8.30
2018-01-27T10:39:45.741Z,8.30
2018-01-27T10:42:14.129Z,8.20
2018-01-27T10:44:42.475Z,8.30
2018-01-27T10:47:10.136Z,8.30
2018-01-27T10:49:37.722Z,8.40
2018-01-27T10:52:05.306Z,8.30
2018-01-27T10:54:32.908Z,8.30
2018-01-27T10:57:00.494Z,8.30
2018-01-27T10:59:28.419Z,8.10
2018-01-27T11:01:55.989Z,8.10
2018-01-27T11:04:23.537Z,8.00
2018-01-27T11:06:51.905Z,8.00
2018-01-27T11:09:19.491Z,8.20
2018-01-27T11:11:47.030Z,8.30
2018-01-27T11:14:14.610Z,8.20
2018-01-27T11:16:42.953Z,8.30
2018-01-27T11:19:10.496Z,8.30
2018-01-27T11:21:38.920Z,8.30
2018-01-27T11:24:07.196Z,8.30
2018-01-27T11:26:34.793Z,8.10
2018-01-27T11:29:03.249Z,8.10
2018-01-27T11:31:31.096Z,8.10
2018-01-27T11:33:58.665Z,8.20
2018-01-27T11:36:26.242Z,8.20
2018-01-27T11:38:53.812Z,8.20
2018-01-27T11:41:22.126Z,8.20
2018-01-27T11:43:50.455Z,8.20
2018-01-27T11:46:18.196Z,8.30
2018-01-27T11:48:45.745Z,8.10
2018-01-27T11:51:13.313Z,8.00
2018-01-27T11:53:41.023Z,8.10
2018-01-27T11:56:08.565Z,8.20
2018-01-27T11:58:37.305Z,8.30
2018-01-27T12:01:04.908Z,8.30
2018-01-27T12:03:32.592Z,8.30
2018-01-27T12:06:00.228Z,8.40
2018-01-27T12:08:28.595Z,8.40
2018-01-27T12:10:56.240Z,8.30
2018-01-27T12:13:24.585Z,8.30
2018-01-27T12:15:52.161Z,8.30
2018-01-27T12:18:19.712Z,8.30
2018-01-27T12:20:47.394Z,8.30
2018-01-27T12:23:15.020Z,8.20
2018-01-27T12:25:42.646Z,8.30
2018-01-27T12:28:11.038Z,8.20
2018-01-27T12:30:38.648Z,8.10
2018-01-27T12:33:06.272Z,8.20
2018-01-27T12:35:33.849Z,8.00
2018-01-27T12:38:01.388Z,8.00
2018-01-27T12:40:29.803Z,7.90
2018-01-27T12:42:57.450Z,7.90
2018-01-27T12:45:25.012Z,7.90
2018-01-27T12:47:52.629Z,7.90
2018-01-27T12:50:21.032Z,8.10
2018-01-27T12:52:51.903Z,8.10
2018-01-27T12:55:19.580Z,8.00
2018-01-27T12:57:48.129Z,8.00
2018-01-27T13:00:15.755Z,8.00
2018-01-27T13:02:44.105Z,8.20
2018-01-27T13:05:11.703Z,8.20
2018-01-27T13:07:40.034Z,8.30
2018-01-27T13:10:07.757Z,8.30
2018-01-27T13:12:36.217Z,8.30
2018-01-27T13:15:04.565Z,8.20
2018-01-27T13:17:32.158Z,8.20
2018-01-27T13:19:59.717Z,8.30
2018-01-27T13:22:27.282Z,8.20
2018-01-27T13:24:54.855Z,8.10
2018-01-27T13:27:22.399Z,8.10
2018-01-27T13:29:50.004Z,8.00
2018-01-27T13:32:17.565Z,8.00
2018-01-27T13:34:45.181Z,7.70
2018-01-27T13:37:12.728Z,7.70
2018-01-27T13:39:41.211Z,7.90
2018-01-27T13:42:09.627Z,8.00
2018-01-27T13:44:37.272Z,8.00
2018-01-27T13:47:05.870Z,8.10
2018-01-27T13:49:33.485Z,8.20
2018-01-27T13:52:01.095Z,8.10
2018-01-27T13:54:28.770Z,8.00
2018-01-27T13:56:56.436Z,8.00
2018-01-27T13:59:24.003Z,8.10
2018-01-27T14:01:51.628Z,8.10
2018-01-27T14:04:19.303Z,8.20
2018-01-27T14:06:46.854Z,8.20
2018-01-27T14:09:14.437Z,8.10
2018-01-27T14:11:42.013Z,8.10
2018-01-27T14:14:09.603Z,8.20
2018-01-27T14:16:37.940Z,8.30
2018-01-27T14:19:05.537Z,8.30
2018-01-27T14:21:33.146Z,8.40
2018-01-27T14:24:00.717Z,8.50
2018-01-27T14:26:30.085Z,8.50
2018-01-27T14:28:57.715Z,8.50
2018-01-27T14:31:25.306Z,8.30
2018-01-27T14:33:52.932Z,8.20
2018-01-27T14:36:32.448Z,8.20
2018-01-27T14:39:00.771Z,8.20
2018-01-27T14:41:28.327Z,8.20
2018-01-27T14:43:56.001Z,8.20
2018-01-27T14:46:23.589Z,8.20
2018-01-27T14:48:52.003Z,8.10
2018-01-27T14:51:20.378Z,8.10
2018-01-27T14:53:47.953Z,8.00
2018-01-27T14:56:15.549Z,8.10
2018-01-27T14:58:43.108Z,8.10
2018-01-27T15:01:10.704Z,8.10
2018-01-27T15:03:38.981Z,8.10
2018-01-27T15:06:07.358Z,8.00
2018-01-27T15:08:35.001Z,8.00
2018-01-27T15:11:02.645Z,8.00
2018-01-27T15:13:30.207Z,7.90
2018-01-27T15:15:57.837Z,7.90
2018-01-27T15:18:26.181Z,7.80
2018-01-27T15:20:53.841Z,7.80
2018-01-27T15:23:21.460Z,7.80
2018-01-27T15:25:49.108Z,7.80
2018-01-27T15:28:16.732Z,7.70
2018-01-27T15:30:44.311Z,7.70
2018-01-27T15:33:11.866Z,7.70
2018-01-27T15:35:40.226Z,7.60
2018-01-27T15:38:07.806Z,7.60
2018-01-27T15:40:35.511Z,7.50
2018-01-27T15:43:03.077Z,7.50
2018-01-27T15:45:30.734Z,7.50
2018-01-27T15:47:58.299Z,7.40
2018-01-27T15:50:25.892Z,7.40
2018-01-27T15:52:53.472Z,7.30
2018-01-27T15:55:21.146Z,7.30
2018-01-27T15:57:49.321Z,7.30
2018-01-27T16:00:16.923Z,7.30
2018-01-27T16:02:44.562Z,7.10
2018-01-27T16:05:12.163Z,7.10
2018-01-27T16:07:39.770Z,7.10
2018-01-27T16:10:07.413Z,7.10
2018-01-27T16:12:34.979Z,7.00
2018-01-27T16:15:02.552Z,7.00
2018-01-27T16:17:30.106Z,7.00
2018-01-27T16:19:57.725Z,7.00
2018-01-27T16:22:25.345Z,7.00
2018-01-27T16:24:52.924Z,6.90
2018-01-27T16:27:20.533Z,6.90
2018-01-27T16:29:48.120Z,6.90
2018-01-27T16:32:15.652Z,6.90
2018-01-27T16:34:44.089Z,6.90
2018-01-27T16:37:11.709Z,6.90
2018-01-27T16:39:39.333Z,6.90
2018-01-27T16:42:07.468Z,6.90
2018-01-27T16:44:35.113Z,6.80
2018-01-27T16:47:02.669Z,6.80
2018-01-27T16:49:30.299Z,6.80
2018-01-27T16:51:58.739Z,6.80
2018-01-27T16:54:26.299Z,6.70
2018-01-27T16:56:53.853Z,6.70
2018-01-27T16:59:21.436Z,6.70
2018-01-27T17:01:49.074Z,6.60
2018-01-27T17:04:16.738Z,6.70
2018-01-27T17:06:44.322Z,6.60
2018-01-27T17:09:11.886Z,6.60
2018-01-27T17:11:39.494Z,6.50
2018-01-27T17:14:07.080Z,6.60
2018-01-27T17:16:34.659Z,6.50
2018-01-27T17:19:02.250Z,6.50
2018-01-27T17:21:29.837Z,6.50
2018-01-27T17:23:57.443Z,6.60
2018-01-27T17:26:25.040Z,6.50
2018-01-27T17:28:52.650Z,6.50
2018-01-27T17:31:20.221Z,6.50
2018-01-27T17:33:47.774Z,6.50
2018-01-27T17:36:15.421Z,6.50
2018-01-27T17:38:42.980Z,6.50
2018-01-27T17:41:10.564Z,6.60
2018-01-27T17:43:38.200Z,6.60
2018-01-27T17:46:05.797Z,6.60
2018-01-27T17:48:34.222Z,6.60
2018-01-27T17:51:01.781Z,6.60
2018-01-27T17:53:29.414Z,6.60
2018-01-27T17:55:57.796Z,6.50
2018-01-27T17:58:25.381Z,6.50
2018-01-27T18:00:53.009Z,6.60
2018-01-27T18:03:21.360Z,6.50
2018-01-27T18:05:48.959Z,6.50
2018-01-27T18:08:16.588Z,6.60
2018-01-27T18:10:44.163Z,6.60
2018-01-27T18:13:12.486Z,6.60
2018-01-27T18:15:40.114Z,6.60
2018-01-27T18:18:07.722Z,6.60
2018-01-27T18:20:35.291Z,6.50
2018-01-27T18:23:03.092Z,6.50
2018-01-27T18:25:31.585Z,6.40
2018-01-27T18:27:59.198Z,6.50
2018-01-27T18:30:26.838Z,6.50
2018-01-27T18:32:54.506Z,6.50
2018-01-27T18:35:22.149Z,6.50
2018-01-27T18:37:49.745Z,6.60
2018-01-27T18:40:17.335Z,6.60
2018-01-27T18:42:45.788Z,6.70
2018-01-27T18:45:13.361Z,6.80
2018-01-27T18:47:40.959Z,6.70
2018-01-27T18:50:08.597Z,6.60
2018-01-27T18:52:37.021Z,6.70
2018-01-27T18:55:04.662Z,6.70
2018-01-27T18:57:32.278Z,6.60
2018-01-27T18:59:59.867Z,6.70
2018-01-27T19:02:28.209Z,6.70
2018-01-27T19:04:55.972Z,6.70
2018-01-27T19:07:23.650Z,6.70
2018-01-27T19:09:51.266Z,6.70
2018-01-27T19:12:18.842Z,6.60
2018-01-27T19:14:47.278Z,6.70
2018-01-27T19:17:14.898Z,6.70
2018-01-27T19:19:42.506Z,6.70
2018-01-27T19:22:10.122Z,6.70
2018-01-27T19:24:37.998Z,6.70
2018-01-27T19:27:05.609Z,6.70
2018-01-27T19:29:33.230Z,6.70
2018-01-27T19:32:00.894Z,6.70
2018-01-27T19:34:28.493Z,6.60
2018-01-27T19:36:56.042Z,6.60
2018-01-27T19:39:24.325Z,6.60
2018-01-27T19:41:52.000Z,6.60
2018-01-27T19:44:19.585Z,6.70
2018-01-27T19:46:47.217Z,6.70
2018-01-27T19:49:14.875Z,6.80
2018-01-27T19:51:42.444Z,6.80
2018-01-27T19:54:10.030Z,6.70
2018-01-27T19:56:38.476Z,6.70
2018-01-27T19:59:06.224Z,6.70
2018-01-27T20:01:33.974Z,6.70
2018-01-27T20:04:02.330Z,6.70
2018-01-27T20:06:30.945Z,6.70
2018-01-27T20:08:59.300Z,6.80
2018-01-27T20:11:26.978Z,6.80
2018-01-27T20:13:55.339Z,6.80
2018-01-27T20:16:22.940Z,6.80
2018-01-27T20:18:50.578Z,6.90
2018-01-27T20:21:18.159Z,6.90
2018-01-27T20:23:45.975Z,7.00
2018-01-27T20:26:13.556Z,7.00
2018-01-27T20:28:41.642Z,7.00
2018-01-27T20:31:10.012Z,7.10
2018-01-27T20:33:38.511Z,7.00
2018-01-27T20:36:07.021Z,7.20
2018-01-27T20:38:34.577Z,7.20
2018-01-27T20:41:02.182Z,7.20
2018-01-27T20:43:29.715Z,7.20
2018-01-27T20:45:57.368Z,7.20
2018-01-27T20:48:25.038Z,7.20
2018-01-27T20:50:53.413Z,7.20
2018-01-27T20:53:20.987Z,7.20
2018-01-27T20:55:48.568Z,7.30
2018-01-27T20:58:16.129Z,7.30
2018-01-27T21:00:43.716Z,7.30
2018-01-27T21:03:11.345Z,7.30
2018-01-27T21:05:38.996Z,7.30
2018-01-27T21:08:06.721Z,7.20
2018-01-27T21:10:34.375Z,7.20
2018-01-27T21:13:01.956Z,7.30
2018-01-27T21:15:29.726Z,7.30
2018-01-27T21:17:58.143Z,7.30
2018-01-27T21:20:25.780Z,7.30
2018-01-27T21:22:53.619Z,7.30
2018-01-27T21:25:21.177Z,7.20
2018-01-27T21:30:39.544Z,7.20
2018-01-27T21:33:07.141Z,7.20
2018-01-27T21:35:34.769Z,7.20
2018-01-27T21:38:02.439Z,7.20
2018-01-27T21:40:30.224Z,7.20
2018-01-27T21:42:57.827Z,7.20
2018-01-27T21:45:26.145Z,7.20
2018-01-27T21:47:53.748Z,7.20
2018-01-27T21:50:22.105Z,7.10
2018-01-27T21:52:49.689Z,7.10
2018-01-27T21:55:17.371Z,7.10
2018-01-27T21:57:45.728Z,7.10
2018-01-27T22:00:14.071Z,7.10
2018-01-27T22:02:42.416Z,7.00
2018-01-27T22:05:09.993Z,7.00
2018-01-27T22:07:37.565Z,7.00
2018-01-27T22:10:05.117Z,6.90
2018-01-27T22:12:32.660Z,6.90
2018-01-27T22:15:00.741Z,6.70
2018-01-27T22:17:28.355Z,6.60
2018-01-27T22:19:56.721Z,6.30
2018-01-27T22:22:24.436Z,6.40
2018-01-27T22:24:51.982Z,6.30
2018-01-27T22:27:19.572Z,6.20
2018-01-27T22:29:47.141Z,6.10
2018-01-27T22:32:14.745Z,6.10
2018-01-27T22:34:43.191Z,5.80
2018-01-27T22:37:11.589Z,5.80
2018-01-27T22:39:39.405Z,5.80
2018-01-27T22:42:07.750Z,5.70
2018-01-27T22:44:36.662Z,5.70
2018-01-27T22:47:04.758Z,5.70
2018-01-27T22:49:32.362Z,5.70
2018-01-27T22:51:59.967Z,5.60
2018-01-27T22:54:27.543Z,5.60
2018-01-27T22:56:55.043Z,5.60
2018-01-27T22:59:22.625Z,5.50
2018-01-27T23:01:50.919Z,5.50
2018-01-27T23:04:18.562Z,5.60
2018-01-27T23:06:46.115Z,5.50
2018-01-27T23:09:14.455Z,5.40
2018-01-27T23:11:42.034Z,5.40
2018-01-27T23:14:10.381Z,5.30
2018-01-27T23:16:38.020Z,5.30
2018-01-27T23:19:05.596Z,5.50
2018-01-27T23:21:33.202Z,5.60
2018-01-27T23:24:01.034Z,5.50
2018-01-27T23:26:28.961Z,5.50
2018-01-27T23:28:56.701Z,5.40
2018-01-27T23:31:25.273Z,5.30
2018-01-27T23:33:53.105Z,5.30
2018-01-27T23:36:21.738Z,5.30
2018-01-27T23:38:49.739Z,5.30
2018-01-27T23:41:17.998Z,5.30
2018-01-27T23:43:45.725Z,5.30
2018-01-27T23:46:13.896Z,5.30
2018-01-27T23:48:41.799Z,5.30
2018-01-27T23:51:09.800Z,5.30
2018-01-27T23:53:37.690Z,5.30
2018-01-27T23:56:05.393Z,5.30
2018-01-27T23:58:33.247Z,5.30
